sensor_id;sensor_type;location;lat;lon;timestamp;P1;durP1;ratioP1;P2;durP2;ratioP2
51664;SDS011;37751;52.408;12.536;2023-05-07T00:00:00;16.65;;;13.50;;
51664;SDS011;37751;52.408;12.536;2023-05-07T00:02:28;19.70;;;13.48;;
51664;SDS011;37751;52.408;12.536;2023-05-07T00:04:56;23.20;;;14.63;;
51664;SDS011;37751;52.408;12.536;2023-05-07T00:07:24;19.67;;;13.65;;
51664;SDS011;37751;52.408;12.536;2023-05-07T00:09:52;22.35;;;14.02;;
51664;SDS011;37751;52.408;12.536;2023-05-07T00:12:20;19.23;;;14.65;;
51664;SDS011;37751;52.408;12.536;2023-05-07T00:14:47;18.00;;;13.30;;
51664;SDS011;37751;52.408;12.536;2023-05-07T00:17:15;18.42;;;13.70;;
51664;SDS011;37751;52.408;12.536;2023-05-07T00:19:43;20.63;;;14.52;;
51664;SDS011;37751;52.408;12.536;2023-05-07T00:22:11;22.92;;;13.95;;
51664;SDS011;37751;52.408;12.536;2023-05-07T00:24:38;19.23;;;13.50;;
51664;SDS011;37751;52.408;12.536;2023-05-07T00:27:06;19.92;;;13.70;;
51664;SDS011;37751;52.408;12.536;2023-05-07T00:29:33;21.70;;;14.55;;
51664;SDS011;37751;52.408;12.536;2023-05-07T00:32:01;25.25;;;14.13;;
51664;SDS011;37751;52.408;12.536;2023-05-07T00:34:29;19.58;;;13.18;;
51664;SDS011;37751;52.408;12.536;2023-05-07T00:36:57;19.02;;;13.02;;
51664;SDS011;37751;52.408;12.536;2023-05-07T00:39:25;19.27;;;13.10;;
51664;SDS011;37751;52.408;12.536;2023-05-07T00:41:53;18.25;;;12.98;;
51664;SDS011;37751;52.408;12.536;2023-05-07T00:44:20;19.85;;;13.15;;
51664;SDS011;37751;52.408;12.536;2023-05-07T00:46:50;18.42;;;13.35;;
51664;SDS011;37751;52.408;12.536;2023-05-07T00:49:20;24.10;;;13.43;;
51664;SDS011;37751;52.408;12.536;2023-05-07T00:51:56;18.98;;;12.95;;
51664;SDS011;37751;52.408;12.536;2023-05-07T00:54:25;22.23;;;12.73;;
51664;SDS011;37751;52.408;12.536;2023-05-07T00:56:53;19.90;;;12.68;;
51664;SDS011;37751;52.408;12.536;2023-05-07T00:59:22;21.42;;;13.15;;
51664;SDS011;37751;52.408;12.536;2023-05-07T01:01:49;18.88;;;13.13;;
51664;SDS011;37751;52.408;12.536;2023-05-07T01:04:19;18.77;;;13.48;;
51664;SDS011;37751;52.408;12.536;2023-05-07T01:06:47;20.00;;;12.73;;
51664;SDS011;37751;52.408;12.536;2023-05-07T01:09:19;17.08;;;13.00;;
51664;SDS011;37751;52.408;12.536;2023-05-07T01:11:48;19.13;;;13.27;;
51664;SDS011;37751;52.408;12.536;2023-05-07T01:14:17;19.40;;;12.55;;
51664;SDS011;37751;52.408;12.536;2023-05-07T01:16:49;17.15;;;12.93;;
51664;SDS011;37751;52.408;12.536;2023-05-07T01:19:22;18.10;;;13.45;;
51664;SDS011;37751;52.408;12.536;2023-05-07T01:21:51;20.63;;;12.70;;
51664;SDS011;37751;52.408;12.536;2023-05-07T01:24:23;19.60;;;12.45;;
51664;SDS011;37751;52.408;12.536;2023-05-07T01:26:51;16.65;;;12.75;;
51664;SDS011;37751;52.408;12.536;2023-05-07T01:29:19;20.83;;;13.82;;
51664;SDS011;37751;52.408;12.536;2023-05-07T01:31:47;19.10;;;12.55;;
51664;SDS011;37751;52.408;12.536;2023-05-07T01:34:17;17.85;;;12.65;;
51664;SDS011;37751;52.408;12.536;2023-05-07T01:36:48;15.95;;;11.18;;
51664;SDS011;37751;52.408;12.536;2023-05-07T01:39:16;16.45;;;11.30;;
51664;SDS011;37751;52.408;12.536;2023-05-07T01:41:44;17.00;;;10.63;;
51664;SDS011;37751;52.408;12.536;2023-05-07T01:44:13;16.05;;;10.95;;
51664;SDS011;37751;52.408;12.536;2023-05-07T01:46:42;10.70;;;9.05;;
51664;SDS011;37751;52.408;12.536;2023-05-07T01:49:10;12.70;;;8.85;;
51664;SDS011;37751;52.408;12.536;2023-05-07T01:51:38;14.43;;;9.43;;
51664;SDS011;37751;52.408;12.536;2023-05-07T01:54:07;13.02;;;9.48;;
51664;SDS011;37751;52.408;12.536;2023-05-07T01:56:35;13.73;;;9.45;;
51664;SDS011;37751;52.408;12.536;2023-05-07T01:59:03;12.77;;;8.88;;
51664;SDS011;37751;52.408;12.536;2023-05-07T02:01:32;14.75;;;9.52;;
51664;SDS011;37751;52.408;12.536;2023-05-07T02:04:00;11.07;;;9.00;;
51664;SDS011;37751;52.408;12.536;2023-05-07T02:06:29;12.98;;;8.52;;
51664;SDS011;37751;52.408;12.536;2023-05-07T02:09:03;11.60;;;8.57;;
51664;SDS011;37751;52.408;12.536;2023-05-07T02:11:30;11.82;;;9.18;;
51664;SDS011;37751;52.408;12.536;2023-05-07T02:13:58;13.25;;;8.90;;
51664;SDS011;37751;52.408;12.536;2023-05-07T02:16:26;10.43;;;8.55;;
51664;SDS011;37751;52.408;12.536;2023-05-07T02:18:55;13.70;;;8.45;;
51664;SDS011;37751;52.408;12.536;2023-05-07T02:21:24;12.00;;;9.27;;
51664;SDS011;37751;52.408;12.536;2023-05-07T02:23:52;15.55;;;8.85;;
51664;SDS011;37751;52.408;12.536;2023-05-07T02:26:20;9.77;;;7.97;;
51664;SDS011;37751;52.408;12.536;2023-05-07T02:28:48;11.02;;;7.65;;
51664;SDS011;37751;52.408;12.536;2023-05-07T02:31:16;14.60;;;7.78;;
51664;SDS011;37751;52.408;12.536;2023-05-07T02:33:44;10.35;;;8.20;;
51664;SDS011;37751;52.408;12.536;2023-05-07T02:36:13;11.27;;;8.02;;
51664;SDS011;37751;52.408;12.536;2023-05-07T02:38:48;9.02;;;7.43;;
51664;SDS011;37751;52.408;12.536;2023-05-07T02:41:15;11.48;;;8.45;;
51664;SDS011;37751;52.408;12.536;2023-05-07T02:43:43;10.35;;;8.10;;
51664;SDS011;37751;52.408;12.536;2023-05-07T02:46:11;11.93;;;8.85;;
51664;SDS011;37751;52.408;12.536;2023-05-07T02:48:43;12.55;;;7.95;;
51664;SDS011;37751;52.408;12.536;2023-05-07T02:51:11;11.07;;;8.88;;
51664;SDS011;37751;52.408;12.536;2023-05-07T02:53:41;12.52;;;8.90;;
51664;SDS011;37751;52.408;12.536;2023-05-07T02:56:08;13.40;;;8.82;;
51664;SDS011;37751;52.408;12.536;2023-05-07T02:58:36;12.38;;;8.55;;
51664;SDS011;37751;52.408;12.536;2023-05-07T03:01:05;11.55;;;8.73;;
51664;SDS011;37751;52.408;12.536;2023-05-07T03:03:38;15.75;;;9.25;;
51664;SDS011;37751;52.408;12.536;2023-05-07T03:06:07;12.73;;;8.70;;
51664;SDS011;37751;52.408;12.536;2023-05-07T03:08:34;12.38;;;9.35;;
51664;SDS011;37751;52.408;12.536;2023-05-07T03:11:03;12.70;;;9.27;;
51664;SDS011;37751;52.408;12.536;2023-05-07T03:13:31;16.13;;;9.00;;
51664;SDS011;37751;52.408;12.536;2023-05-07T03:15:59;15.45;;;10.50;;
51664;SDS011;37751;52.408;12.536;2023-05-07T03:18:26;13.05;;;9.23;;
51664;SDS011;37751;52.408;12.536;2023-05-07T03:20:54;13.00;;;9.07;;
51664;SDS011;37751;52.408;12.536;2023-05-07T03:23:22;13.40;;;9.27;;
51664;SDS011;37751;52.408;12.536;2023-05-07T03:25:51;14.43;;;9.40;;
51664;SDS011;37751;52.408;12.536;2023-05-07T03:28:19;12.93;;;8.73;;
51664;SDS011;37751;52.408;12.536;2023-05-07T03:30:52;14.07;;;10.18;;
51664;SDS011;37751;52.408;12.536;2023-05-07T03:33:20;13.13;;;9.38;;
51664;SDS011;37751;52.408;12.536;2023-05-07T03:35:48;12.55;;;8.80;;
51664;SDS011;37751;52.408;12.536;2023-05-07T03:38:20;14.57;;;9.05;;
51664;SDS011;37751;52.408;12.536;2023-05-07T03:40:48;13.88;;;9.30;;
51664;SDS011;37751;52.408;12.536;2023-05-07T03:43:16;12.30;;;8.68;;
51664;SDS011;37751;52.408;12.536;2023-05-07T03:45:49;12.23;;;8.88;;
51664;SDS011;37751;52.408;12.536;2023-05-07T03:48:24;11.02;;;8.77;;
51664;SDS011;37751;52.408;12.536;2023-05-07T03:50:54;11.10;;;8.75;;
51664;SDS011;37751;52.408;12.536;2023-05-07T03:53:23;12.68;;;8.85;;
51664;SDS011;37751;52.408;12.536;2023-05-07T03:55:51;13.95;;;8.55;;
51664;SDS011;37751;52.408;12.536;2023-05-07T03:58:19;13.88;;;8.63;;
51664;SDS011;37751;52.408;12.536;2023-05-07T04:00:47;13.55;;;9.05;;
51664;SDS011;37751;52.408;12.536;2023-05-07T04:03:22;10.07;;;8.23;;
51664;SDS011;37751;52.408;12.536;2023-05-07T04:05:51;9.02;;;8.02;;
51664;SDS011;37751;52.408;12.536;2023-05-07T04:08:19;14.70;;;8.82;;
51664;SDS011;37751;52.408;12.536;2023-05-07T04:10:55;10.93;;;8.30;;
51664;SDS011;37751;52.408;12.536;2023-05-07T04:13:25;11.48;;;8.40;;
51664;SDS011;37751;52.408;12.536;2023-05-07T04:15:54;10.68;;;7.22;;
51664;SDS011;37751;52.408;12.536;2023-05-07T04:18:24;10.90;;;7.80;;
51664;SDS011;37751;52.408;12.536;2023-05-07T04:20:51;12.48;;;8.05;;
51664;SDS011;37751;52.408;12.536;2023-05-07T04:23:19;9.18;;;7.50;;
51664;SDS011;37751;52.408;12.536;2023-05-07T04:25:47;13.23;;;7.60;;
51664;SDS011;37751;52.408;12.536;2023-05-07T04:28:25;10.45;;;7.35;;
51664;SDS011;37751;52.408;12.536;2023-05-07T04:30:53;9.30;;;7.63;;
51664;SDS011;37751;52.408;12.536;2023-05-07T04:33:22;9.40;;;7.75;;
51664;SDS011;37751;52.408;12.536;2023-05-07T04:35:50;8.60;;;7.40;;
51664;SDS011;37751;52.408;12.536;2023-05-07T04:38:18;10.25;;;8.40;;
51664;SDS011;37751;52.408;12.536;2023-05-07T04:40:48;9.70;;;7.78;;
51664;SDS011;37751;52.408;12.536;2023-05-07T04:43:20;10.27;;;7.70;;
51664;SDS011;37751;52.408;12.536;2023-05-07T04:45:50;10.18;;;8.65;;
51664;SDS011;37751;52.408;12.536;2023-05-07T04:48:21;12.70;;;9.27;;
51664;SDS011;37751;52.408;12.536;2023-05-07T04:50:50;11.65;;;8.77;;
51664;SDS011;37751;52.408;12.536;2023-05-07T04:53:19;10.52;;;8.30;;
51664;SDS011;37751;52.408;12.536;2023-05-07T04:55:48;13.97;;;8.67;;
51664;SDS011;37751;52.408;12.536;2023-05-07T04:58:16;13.10;;;8.52;;
51664;SDS011;37751;52.408;12.536;2023-05-07T05:00:46;12.85;;;8.10;;
51664;SDS011;37751;52.408;12.536;2023-05-07T05:03:14;11.73;;;7.78;;
51664;SDS011;37751;52.408;12.536;2023-05-07T05:05:42;12.38;;;8.52;;
51664;SDS011;37751;52.408;12.536;2023-05-07T05:08:10;11.40;;;8.85;;
51664;SDS011;37751;52.408;12.536;2023-05-07T05:10:41;13.18;;;9.00;;
51664;SDS011;37751;52.408;12.536;2023-05-07T05:13:11;11.60;;;8.25;;
51664;SDS011;37751;52.408;12.536;2023-05-07T05:15:41;11.18;;;8.52;;
51664;SDS011;37751;52.408;12.536;2023-05-07T05:18:09;16.42;;;8.98;;
51664;SDS011;37751;52.408;12.536;2023-05-07T05:20:37;13.07;;;8.98;;
51664;SDS011;37751;52.408;12.536;2023-05-07T05:23:04;13.25;;;9.00;;
51664;SDS011;37751;52.408;12.536;2023-05-07T05:25:33;14.90;;;8.40;;
51664;SDS011;37751;52.408;12.536;2023-05-07T05:28:01;11.80;;;8.82;;
51664;SDS011;37751;52.408;12.536;2023-05-07T05:30:30;14.27;;;8.85;;
51664;SDS011;37751;52.408;12.536;2023-05-07T05:32:58;11.18;;;8.10;;
51664;SDS011;37751;52.408;12.536;2023-05-07T05:35:32;17.67;;;8.65;;
51664;SDS011;37751;52.408;12.536;2023-05-07T05:38:04;11.23;;;8.60;;
51664;SDS011;37751;52.408;12.536;2023-05-07T05:40:33;11.23;;;8.57;;
51664;SDS011;37751;52.408;12.536;2023-05-07T05:43:01;10.43;;;8.45;;
51664;SDS011;37751;52.408;12.536;2023-05-07T05:45:29;11.10;;;8.13;;
51664;SDS011;37751;52.408;12.536;2023-05-07T05:47:56;13.02;;;9.02;;
51664;SDS011;37751;52.408;12.536;2023-05-07T05:50:26;15.68;;;8.43;;
51664;SDS011;37751;52.408;12.536;2023-05-07T05:52:54;14.88;;;8.45;;
51664;SDS011;37751;52.408;12.536;2023-05-07T05:55:23;11.52;;;7.97;;
51664;SDS011;37751;52.408;12.536;2023-05-07T05:57:50;19.65;;;8.38;;
51664;SDS011;37751;52.408;12.536;2023-05-07T06:00:19;9.00;;;7.47;;
51664;SDS011;37751;52.408;12.536;2023-05-07T06:02:57;10.13;;;7.25;;
51664;SDS011;37751;52.408;12.536;2023-05-07T06:05:26;11.68;;;7.60;;
51664;SDS011;37751;52.408;12.536;2023-05-07T06:07:55;13.00;;;8.60;;
51664;SDS011;37751;52.408;12.536;2023-05-07T06:10:24;11.80;;;8.70;;
51664;SDS011;37751;52.408;12.536;2023-05-07T06:12:53;13.10;;;8.98;;
51664;SDS011;37751;52.408;12.536;2023-05-07T06:15:24;11.63;;;8.65;;
51664;SDS011;37751;52.408;12.536;2023-05-07T06:17:52;13.77;;;9.37;;
51664;SDS011;37751;52.408;12.536;2023-05-07T06:20:20;11.52;;;9.18;;
51664;SDS011;37751;52.408;12.536;2023-05-07T06:22:47;11.23;;;9.15;;
51664;SDS011;37751;52.408;12.536;2023-05-07T06:25:16;15.77;;;8.93;;
51664;SDS011;37751;52.408;12.536;2023-05-07T06:27:43;11.55;;;9.25;;
51664;SDS011;37751;52.408;12.536;2023-05-07T06:30:13;12.60;;;9.95;;
51664;SDS011;37751;52.408;12.536;2023-05-07T06:32:41;12.63;;;8.85;;
51664;SDS011;37751;52.408;12.536;2023-05-07T06:35:10;14.75;;;9.10;;
51664;SDS011;37751;52.408;12.536;2023-05-07T06:37:40;12.15;;;9.77;;
51664;SDS011;37751;52.408;12.536;2023-05-07T06:40:14;13.15;;;9.52;;
51664;SDS011;37751;52.408;12.536;2023-05-07T06:42:46;13.55;;;10.35;;
51664;SDS011;37751;52.408;12.536;2023-05-07T06:45:36;12.52;;;9.07;;
51664;SDS011;37751;52.408;12.536;2023-05-07T06:48:05;13.13;;;8.82;;
51664;SDS011;37751;52.408;12.536;2023-05-07T06:50:43;14.23;;;9.45;;
51664;SDS011;37751;52.408;12.536;2023-05-07T06:53:11;13.40;;;9.05;;
51664;SDS011;37751;52.408;12.536;2023-05-07T06:55:39;14.80;;;9.00;;
51664;SDS011;37751;52.408;12.536;2023-05-07T06:58:07;9.27;;;8.18;;
51664;SDS011;37751;52.408;12.536;2023-05-07T07:00:34;18.95;;;9.57;;
51664;SDS011;37751;52.408;12.536;2023-05-07T07:03:02;12.68;;;8.32;;
51664;SDS011;37751;52.408;12.536;2023-05-07T07:05:30;10.18;;;8.73;;
51664;SDS011;37751;52.408;12.536;2023-05-07T07:07:59;9.55;;;7.72;;
51664;SDS011;37751;52.408;12.536;2023-05-07T07:10:27;9.50;;;7.93;;
51664;SDS011;37751;52.408;12.536;2023-05-07T07:12:56;11.57;;;8.38;;
51664;SDS011;37751;52.408;12.536;2023-05-07T07:15:26;14.65;;;8.48;;
51664;SDS011;37751;52.408;12.536;2023-05-07T07:17:55;11.98;;;8.10;;
51664;SDS011;37751;52.408;12.536;2023-05-07T07:20:24;12.43;;;8.50;;
51664;SDS011;37751;52.408;12.536;2023-05-07T07:22:52;10.85;;;7.88;;
51664;SDS011;37751;52.408;12.536;2023-05-07T07:25:20;11.73;;;8.02;;
51664;SDS011;37751;52.408;12.536;2023-05-07T07:27:49;11.27;;;8.40;;
51664;SDS011;37751;52.408;12.536;2023-05-07T07:30:17;11.48;;;8.70;;
51664;SDS011;37751;52.408;12.536;2023-05-07T07:32:48;10.25;;;8.40;;
51664;SDS011;37751;52.408;12.536;2023-05-07T07:35:15;11.48;;;8.73;;
51664;SDS011;37751;52.408;12.536;2023-05-07T07:37:44;12.95;;;7.95;;
51664;SDS011;37751;52.408;12.536;2023-05-07T07:40:13;10.43;;;7.65;;
51664;SDS011;37751;52.408;12.536;2023-05-07T07:42:42;14.25;;;7.03;;
51664;SDS011;37751;52.408;12.536;2023-05-07T07:45:10;11.50;;;7.13;;
51664;SDS011;37751;52.408;12.536;2023-05-07T07:47:41;11.10;;;8.13;;
51664;SDS011;37751;52.408;12.536;2023-05-07T07:50:12;8.88;;;7.35;;
51664;SDS011;37751;52.408;12.536;2023-05-07T07:52:59;11.00;;;7.93;;
51664;SDS011;37751;52.408;12.536;2023-05-07T07:55:28;11.73;;;8.32;;
51664;SDS011;37751;52.408;12.536;2023-05-07T07:57:56;13.15;;;8.25;;
51664;SDS011;37751;52.408;12.536;2023-05-07T08:00:24;10.63;;;8.05;;
51664;SDS011;37751;52.408;12.536;2023-05-07T08:02:55;8.88;;;7.90;;
51664;SDS011;37751;52.408;12.536;2023-05-07T08:05:28;11.40;;;8.15;;
51664;SDS011;37751;52.408;12.536;2023-05-07T08:07:57;9.00;;;7.38;;
51664;SDS011;37751;52.408;12.536;2023-05-07T08:10:30;10.48;;;7.82;;
51664;SDS011;37751;52.408;12.536;2023-05-07T08:13:06;12.00;;;7.25;;
51664;SDS011;37751;52.408;12.536;2023-05-07T08:15:36;7.78;;;6.18;;
51664;SDS011;37751;52.408;12.536;2023-05-07T08:18:04;9.25;;;6.97;;
51664;SDS011;37751;52.408;12.536;2023-05-07T08:20:33;9.57;;;6.55;;
51664;SDS011;37751;52.408;12.536;2023-05-07T08:23:05;10.32;;;6.47;;
51664;SDS011;37751;52.408;12.536;2023-05-07T08:25:38;7.40;;;6.22;;
51664;SDS011;37751;52.408;12.536;2023-05-07T08:28:05;9.30;;;5.97;;
51664;SDS011;37751;52.408;12.536;2023-05-07T08:30:37;9.80;;;6.40;;
51664;SDS011;37751;52.408;12.536;2023-05-07T08:33:05;10.85;;;7.47;;
51664;SDS011;37751;52.408;12.536;2023-05-07T08:35:33;6.65;;;5.43;;
51664;SDS011;37751;52.408;12.536;2023-05-07T08:38:01;8.35;;;6.25;;
51664;SDS011;37751;52.408;12.536;2023-05-07T08:40:29;7.15;;;5.55;;
51664;SDS011;37751;52.408;12.536;2023-05-07T08:43:07;8.05;;;6.05;;
51664;SDS011;37751;52.408;12.536;2023-05-07T08:45:37;5.95;;;5.35;;
51664;SDS011;37751;52.408;12.536;2023-05-07T08:48:14;18.05;;;11.98;;
51664;SDS011;37751;52.408;12.536;2023-05-07T08:50:51;6.50;;;5.30;;
51664;SDS011;37751;52.408;12.536;2023-05-07T08:53:19;10.57;;;6.18;;
51664;SDS011;37751;52.408;12.536;2023-05-07T08:55:48;6.43;;;4.93;;
51664;SDS011;37751;52.408;12.536;2023-05-07T08:58:17;7.72;;;4.88;;
51664;SDS011;37751;52.408;12.536;2023-05-07T09:00:44;6.00;;;4.10;;
51664;SDS011;37751;52.408;12.536;2023-05-07T09:03:14;8.25;;;4.60;;
51664;SDS011;37751;52.408;12.536;2023-05-07T09:05:47;7.50;;;4.10;;
51664;SDS011;37751;52.408;12.536;2023-05-07T09:08:17;4.63;;;3.33;;
51664;SDS011;37751;52.408;12.536;2023-05-07T09:10:47;6.63;;;3.40;;
51664;SDS011;37751;52.408;12.536;2023-05-07T09:13:16;5.00;;;3.28;;
51664;SDS011;37751;52.408;12.536;2023-05-07T09:15:45;9.85;;;3.92;;
51664;SDS011;37751;52.408;12.536;2023-05-07T09:18:14;4.72;;;3.40;;
51664;SDS011;37751;52.408;12.536;2023-05-07T09:20:44;4.35;;;3.22;;
51664;SDS011;37751;52.408;12.536;2023-05-07T09:23:12;6.28;;;3.67;;
51664;SDS011;37751;52.408;12.536;2023-05-07T09:25:43;8.05;;;3.47;;
51664;SDS011;37751;52.408;12.536;2023-05-07T09:28:20;4.80;;;3.50;;
51664;SDS011;37751;52.408;12.536;2023-05-07T09:30:48;5.53;;;3.60;;
51664;SDS011;37751;52.408;12.536;2023-05-07T09:33:16;4.93;;;3.58;;
51664;SDS011;37751;52.408;12.536;2023-05-07T09:35:50;3.60;;;2.75;;
51664;SDS011;37751;52.408;12.536;2023-05-07T09:38:20;6.60;;;2.90;;
51664;SDS011;37751;52.408;12.536;2023-05-07T09:41:02;4.03;;;2.90;;
51664;SDS011;37751;52.408;12.536;2023-05-07T09:43:54;4.25;;;3.10;;
51664;SDS011;37751;52.408;12.536;2023-05-07T09:46:29;4.15;;;3.13;;
51664;SDS011;37751;52.408;12.536;2023-05-07T09:49:06;5.55;;;3.00;;
51664;SDS011;37751;52.408;12.536;2023-05-07T09:51:49;5.35;;;3.10;;
51664;SDS011;37751;52.408;12.536;2023-05-07T09:54:21;5.20;;;2.80;;
51664;SDS011;37751;52.408;12.536;2023-05-07T09:56:52;5.28;;;3.20;;
51664;SDS011;37751;52.408;12.536;2023-05-07T09:59:24;6.97;;;3.63;;
51664;SDS011;37751;52.408;12.536;2023-05-07T10:01:59;3.60;;;2.50;;
51664;SDS011;37751;52.408;12.536;2023-05-07T10:04:33;4.75;;;3.17;;
51664;SDS011;37751;52.408;12.536;2023-05-07T10:07:02;4.30;;;2.65;;
51664;SDS011;37751;52.408;12.536;2023-05-07T10:09:32;4.10;;;2.90;;
51664;SDS011;37751;52.408;12.536;2023-05-07T10:12:02;4.28;;;3.13;;
51664;SDS011;37751;52.408;12.536;2023-05-07T10:14:30;3.70;;;2.90;;
51664;SDS011;37751;52.408;12.536;2023-05-07T10:16:59;4.10;;;2.42;;
51664;SDS011;37751;52.408;12.536;2023-05-07T10:19:27;4.20;;;2.55;;
51664;SDS011;37751;52.408;12.536;2023-05-07T10:22:01;4.70;;;2.47;;
51664;SDS011;37751;52.408;12.536;2023-05-07T10:24:38;4.13;;;2.45;;
51664;SDS011;37751;52.408;12.536;2023-05-07T10:27:13;6.88;;;2.30;;
51664;SDS011;37751;52.408;12.536;2023-05-07T10:29:53;3.97;;;2.40;;
51664;SDS011;37751;52.408;12.536;2023-05-07T10:32:42;4.50;;;2.60;;
51664;SDS011;37751;52.408;12.536;2023-05-07T10:35:29;2.50;;;2.30;;
51664;SDS011;37751;52.408;12.536;2023-05-07T10:38:03;4.22;;;2.42;;
51664;SDS011;37751;52.408;12.536;2023-05-07T10:40:34;3.80;;;2.83;;
51664;SDS011;37751;52.408;12.536;2023-05-07T10:43:04;4.85;;;2.47;;
51664;SDS011;37751;52.408;12.536;2023-05-07T10:57:52;2.50;;;1.95;;
51664;SDS011;37751;52.408;12.536;2023-05-07T11:03:09;2.97;;;2.40;;
51664;SDS011;37751;52.408;12.536;2023-05-07T11:05:44;3.72;;;2.70;;
51664;SDS011;37751;52.408;12.536;2023-05-07T11:08:21;4.13;;;2.38;;
51664;SDS011;37751;52.408;12.536;2023-05-07T11:11:01;2.40;;;2.20;;
51664;SDS011;37751;52.408;12.536;2023-05-07T11:13:41;3.97;;;2.33;;
51664;SDS011;37751;52.408;12.536;2023-05-07T11:16:36;2.33;;;2.10;;
51664;SDS011;37751;52.408;12.536;2023-05-07T11:25:18;3.00;;;2.30;;
51664;SDS011;37751;52.408;12.536;2023-05-07T11:27:51;4.85;;;2.38;;
51664;SDS011;37751;52.408;12.536;2023-05-07T11:30:20;3.50;;;2.65;;
51664;SDS011;37751;52.408;12.536;2023-05-07T11:32:48;3.03;;;2.40;;
51664;SDS011;37751;52.408;12.536;2023-05-07T11:35:17;4.15;;;2.00;;
51664;SDS011;37751;52.408;12.536;2023-05-07T11:37:47;2.92;;;2.20;;
51664;SDS011;37751;52.408;12.536;2023-05-07T11:40:16;3.17;;;2.40;;
51664;SDS011;37751;52.408;12.536;2023-05-07T11:42:44;4.32;;;2.28;;
51664;SDS011;37751;52.408;12.536;2023-05-07T11:45:11;3.45;;;2.60;;
51664;SDS011;37751;52.408;12.536;2023-05-07T11:47:50;3.17;;;2.40;;
51664;SDS011;37751;52.408;12.536;2023-05-07T11:50:17;5.43;;;2.70;;
51664;SDS011;37751;52.408;12.536;2023-05-07T11:52:51;3.22;;;2.50;;
51664;SDS011;37751;52.408;12.536;2023-05-07T11:55:19;2.95;;;2.05;;
51664;SDS011;37751;52.408;12.536;2023-05-07T11:57:49;2.40;;;2.13;;
51664;SDS011;37751;52.408;12.536;2023-05-07T12:00:16;2.35;;;2.13;;
51664;SDS011;37751;52.408;12.536;2023-05-07T12:02:45;2.85;;;2.30;;
51664;SDS011;37751;52.408;12.536;2023-05-07T12:05:12;3.03;;;2.15;;
51664;SDS011;37751;52.408;12.536;2023-05-07T12:07:41;2.35;;;1.80;;
51664;SDS011;37751;52.408;12.536;2023-05-07T12:10:09;3.35;;;2.05;;
51664;SDS011;37751;52.408;12.536;2023-05-07T12:12:41;4.05;;;2.65;;
51664;SDS011;37751;52.408;12.536;2023-05-07T12:15:15;3.15;;;2.10;;
51664;SDS011;37751;52.408;12.536;2023-05-07T12:17:44;2.85;;;2.35;;
51664;SDS011;37751;52.408;12.536;2023-05-07T12:20:12;2.88;;;2.60;;
51664;SDS011;37751;52.408;12.536;2023-05-07T12:22:40;2.63;;;2.42;;
51664;SDS011;37751;52.408;12.536;2023-05-07T12:25:08;4.78;;;2.63;;
51664;SDS011;37751;52.408;12.536;2023-05-07T12:27:37;2.38;;;2.17;;
51664;SDS011;37751;52.408;12.536;2023-05-07T12:30:06;2.50;;;2.30;;
51664;SDS011;37751;52.408;12.536;2023-05-07T12:32:38;3.05;;;2.28;;
51664;SDS011;37751;52.408;12.536;2023-05-07T12:35:05;4.43;;;2.28;;
51664;SDS011;37751;52.408;12.536;2023-05-07T12:37:34;6.63;;;2.85;;
51664;SDS011;37751;52.408;12.536;2023-05-07T12:40:03;5.20;;;2.33;;
51664;SDS011;37751;52.408;12.536;2023-05-07T12:42:36;5.15;;;3.25;;
51664;SDS011;37751;52.408;12.536;2023-05-07T12:45:09;7.75;;;3.10;;
51664;SDS011;37751;52.408;12.536;2023-05-07T12:47:44;3.42;;;2.80;;
51664;SDS011;37751;52.408;12.536;2023-05-07T12:50:13;4.85;;;2.30;;
51664;SDS011;37751;52.408;12.536;2023-05-07T12:52:43;3.28;;;2.53;;
51664;SDS011;37751;52.408;12.536;2023-05-07T12:55:14;3.97;;;2.50;;
51664;SDS011;37751;52.408;12.536;2023-05-07T12:57:47;3.70;;;2.90;;
51664;SDS011;37751;52.408;12.536;2023-05-07T13:00:16;3.58;;;2.58;;
51664;SDS011;37751;52.408;12.536;2023-05-07T13:02:45;3.67;;;2.13;;
51664;SDS011;37751;52.408;12.536;2023-05-07T13:05:13;3.00;;;2.05;;
51664;SDS011;37751;52.408;12.536;2023-05-07T13:07:41;3.58;;;1.85;;
51664;SDS011;37751;52.408;12.536;2023-05-07T13:10:23;4.05;;;2.17;;
51664;SDS011;37751;52.408;12.536;2023-05-07T13:12:51;3.90;;;2.20;;
51664;SDS011;37751;52.408;12.536;2023-05-07T13:15:20;3.03;;;1.92;;
51664;SDS011;37751;52.408;12.536;2023-05-07T13:17:48;4.55;;;2.10;;
51664;SDS011;37751;52.408;12.536;2023-05-07T13:20:16;2.47;;;1.75;;
51664;SDS011;37751;52.408;12.536;2023-05-07T13:22:44;2.47;;;1.95;;
51664;SDS011;37751;52.408;12.536;2023-05-07T13:25:12;5.50;;;1.90;;
51664;SDS011;37751;52.408;12.536;2023-05-07T13:27:40;3.47;;;1.88;;
51664;SDS011;37751;52.408;12.536;2023-05-07T13:30:08;3.00;;;1.42;;
51664;SDS011;37751;52.408;12.536;2023-05-07T13:32:36;2.35;;;1.50;;
51664;SDS011;37751;52.408;12.536;2023-05-07T13:35:04;1.90;;;1.60;;
51664;SDS011;37751;52.408;12.536;2023-05-07T13:37:32;2.20;;;1.23;;
51664;SDS011;37751;52.408;12.536;2023-05-07T13:40:00;6.40;;;1.70;;
51664;SDS011;37751;52.408;12.536;2023-05-07T13:42:28;4.85;;;2.30;;
51664;SDS011;37751;52.408;12.536;2023-05-07T13:44:55;1.70;;;1.60;;
51664;SDS011;37751;52.408;12.536;2023-05-07T13:47:23;2.55;;;1.50;;
51664;SDS011;37751;52.408;12.536;2023-05-07T13:49:51;1.40;;;1.30;;
51664;SDS011;37751;52.408;12.536;2023-05-07T13:52:19;3.00;;;1.65;;
51664;SDS011;37751;52.408;12.536;2023-05-07T13:54:47;1.98;;;1.60;;
51664;SDS011;37751;52.408;12.536;2023-05-07T13:57:15;1.65;;;1.50;;
51664;SDS011;37751;52.408;12.536;2023-05-07T13:59:42;1.73;;;1.13;;
51664;SDS011;37751;52.408;12.536;2023-05-07T14:02:10;3.03;;;1.40;;
51664;SDS011;37751;52.408;12.536;2023-05-07T14:04:38;2.22;;;1.70;;
51664;SDS011;37751;52.408;12.536;2023-05-07T14:07:05;2.35;;;1.60;;
51664;SDS011;37751;52.408;12.536;2023-05-07T14:09:33;1.90;;;1.50;;
51664;SDS011;37751;52.408;12.536;2023-05-07T14:12:01;5.10;;;1.52;;
51664;SDS011;37751;52.408;12.536;2023-05-07T14:14:29;3.70;;;1.45;;
51664;SDS011;37751;52.408;12.536;2023-05-07T14:16:57;1.42;;;1.27;;
51664;SDS011;37751;52.408;12.536;2023-05-07T14:19:26;1.77;;;1.40;;
51664;SDS011;37751;52.408;12.536;2023-05-07T14:21:53;5.03;;;4.03;;
51664;SDS011;37751;52.408;12.536;2023-05-07T14:24:25;4.13;;;2.58;;
51664;SDS011;37751;52.408;12.536;2023-05-07T14:27:05;3.90;;;1.58;;
51664;SDS011;37751;52.408;12.536;2023-05-07T14:29:33;1.65;;;1.40;;
51664;SDS011;37751;52.408;12.536;2023-05-07T14:32:02;1.63;;;1.40;;
51664;SDS011;37751;52.408;12.536;2023-05-07T14:34:31;3.58;;;1.33;;
51664;SDS011;37751;52.408;12.536;2023-05-07T14:36:59;6.30;;;3.17;;
51664;SDS011;37751;52.408;12.536;2023-05-07T14:39:30;2.85;;;1.73;;
51664;SDS011;37751;52.408;12.536;2023-05-07T14:41:58;1.63;;;1.35;;
51664;SDS011;37751;52.408;12.536;2023-05-07T14:44:26;1.92;;;1.20;;
51664;SDS011;37751;52.408;12.536;2023-05-07T14:46:54;2.97;;;1.40;;
51664;SDS011;37751;52.408;12.536;2023-05-07T14:49:22;4.57;;;1.50;;
51664;SDS011;37751;52.408;12.536;2023-05-07T14:51:50;4.63;;;1.52;;
51664;SDS011;37751;52.408;12.536;2023-05-07T14:54:18;5.40;;;1.90;;
51664;SDS011;37751;52.408;12.536;2023-05-07T14:56:46;1.75;;;1.48;;
51664;SDS011;37751;52.408;12.536;2023-05-07T14:59:14;3.85;;;1.42;;
51664;SDS011;37751;52.408;12.536;2023-05-07T15:01:44;4.70;;;1.48;;